Dover, Ohio
Current Conditions -  °F | °C
As of 12:08 AM on Tuesday 27 Jan 2015 (Local Time) from KPHD Reporting Station
Light Snow Light Snow  
Wind Chill: 21°   Ceiling: 1600
Heat Index: 21°   Visibility: 5mi
Dew Point: 15°   Wind: 3mph
Humidity: 78%   Direction: 360°N
Pressure: 29.91"   Gusts: NA
Location:  40.52°N, 81.47°W
Report Text: KPHD 270508Z AUTO 36003KT 5SM -SN OVC016 M06/M09 A2991 RMK AO2 P0000 T10611094
Loading
Personal Weather Stations






























Interactive Weather Map New forecast layout! Learn more

10-Day Weather Forecast

Advertisements
Track Severe Weather on mobile